Time;durP1;ratioP1;P1;durP2;ratioP2;P2;SDS_P1;SDS_P2;PMS_P1;PMS_P2;Temp;Humidity;BMP_temperature;BMP_pressure;BME280_temperature;BME280_humidity;BME280_pressure;Samples;Min_cycle;Max_cycle;Signal;HPM_P1;HPM_P2
2022/11/09 00:01:57;;;;;;;7.35;3.15;;;11.30;99.90;;;;;;6244643;23;20099;-82
2022/11/09 00:04:44;;;;;;;4.70;2.97;;;11.30;99.90;;;;;;6246814;22;20095;-82
2022/11/09 00:07:31;;;;;;;5.45;3.42;;;11.40;99.90;;;;;;6246563;23;20456;-82
2022/11/09 00:10:18;;;;;;;6.93;3.20;;;11.50;99.90;;;;;;6246429;23;20108;-83
2022/11/09 00:13:06;;;;;;;4.55;3.05;;;11.50;99.90;;;;;;6246386;23;20444;-83
2022/11/09 00:15:57;;;;;;;4.65;3.05;;;11.50;99.90;;;;;;6246791;23;20095;-83
2022/11/09 00:18:49;;;;;;;4.65;2.92;;;11.50;99.90;;;;;;6245383;23;20454;-83
2022/11/09 00:21:36;;;;;;;5.03;3.17;;;11.50;99.90;;;;;;6246626;22;20347;-82
2022/11/09 00:24:28;;;;;;;6.45;2.85;;;11.50;99.90;;;;;;6247995;22;20387;-85
2022/11/09 00:27:15;;;;;;;7.00;2.95;;;11.40;99.90;;;;;;6248713;22;20028;-82
2022/11/09 00:30:04;;;;;;;5.15;3.28;;;11.30;99.90;;;;;;6247295;23;20082;-84
2022/11/09 00:32:51;;;;;;;6.07;3.45;;;11.30;99.90;;;;;;6246269;23;20052;-83
2022/11/09 00:35:38;;;;;;;4.53;2.95;;;11.30;99.90;;;;;;6245558;23;20027;-82
2022/11/09 00:38:25;;;;;;;7.75;3.10;;;11.30;99.90;;;;;;6245377;23;20024;-84
2022/11/09 00:41:12;;;;;;;5.32;2.85;;;11.30;99.90;;;;;;6245602;23;20372;-82
2022/11/09 00:44:02;;;;;;;5.10;2.90;;;11.40;99.90;;;;;;6246221;23;20103;-83
2022/11/09 00:46:49;;;;;;;5.75;2.50;;;11.40;99.90;;;;;;6244924;23;20095;-83
2022/11/09 00:49:39;;;;;;;11.55;3.88;;;11.30;99.90;;;;;;6245582;23;20020;-83
2022/11/09 00:52:26;;;;;;;4.93;3.28;;;11.30;99.90;;;;;;6245220;23;20371;-83
2022/11/09 00:55:14;;;;;;;4.55;2.78;;;11.30;99.90;;;;;;6244276;23;20094;-82
2022/11/09 00:58:01;;;;;;;4.68;2.80;;;11.30;99.90;;;;;;6245957;23;20051;-82
2022/11/09 01:00:51;;;;;;;4.72;2.55;;;11.40;99.90;;;;;;6244687;23;20090;-82
2022/11/09 01:03:41;;;;;;;4.93;2.58;;;11.40;99.90;;;;;;6247562;22;20020;-83
2022/11/09 01:06:31;;;;;;;5.38;2.92;;;11.40;99.90;;;;;;6252391;23;20074;-83
2022/11/09 01:09:20;;;;;;;5.85;2.70;;;11.40;99.90;;;;;;6258122;22;20024;-83
2022/11/09 01:12:07;;;;;;;5.53;2.88;;;11.40;99.90;;;;;;6261112;23;20086;-83
2022/11/09 01:14:57;;;;;;;4.15;2.80;;;11.40;99.90;;;;;;6260125;23;20095;-82
2022/11/09 01:17:44;;;;;;;4.57;2.63;;;11.50;99.90;;;;;;6259162;23;20024;-83
2022/11/09 01:20:31;;;;;;;4.72;2.70;;;11.50;99.90;;;;;;6261013;23;20035;-82
2022/11/09 01:23:20;;;;;;;4.07;2.95;;;11.50;99.90;;;;;;6269604;23;20099;-83
2022/11/09 01:26:10;;;;;;;4.05;2.70;;;11.60;99.90;;;;;;6250817;23;20028;-83
2022/11/09 01:29:00;;;;;;;4.82;2.63;;;11.70;99.90;;;;;;6249656;23;20455;-82
2022/11/09 01:31:47;;;;;;;5.82;2.70;;;11.80;99.90;;;;;;6249893;23;20070;-81
2022/11/09 01:34:35;;;;;;;3.90;2.65;;;11.80;99.90;;;;;;6251797;23;20103;-82
2022/11/09 01:37:22;;;;;;;6.57;2.67;;;11.90;99.90;;;;;;6245371;23;20377;-83
2022/11/09 01:40:10;;;;;;;8.30;2.80;;;12.00;99.90;;;;;;6244482;23;20442;-83
2022/11/09 01:43:06;;;;;;;5.40;2.72;;;12.00;99.90;;;;;;6245703;23;20358;-84
2022/11/09 01:46:07;;;;;;;5.47;2.58;;;12.00;99.90;;;;;;6246630;22;20099;-83
2022/11/09 01:49:11;;;;;;;6.63;2.90;;;12.00;99.90;;;;;;6246422;23;20024;-83
2022/11/09 01:52:08;;;;;;;5.10;2.40;;;12.00;99.90;;;;;;6245940;22;20024;-83
2022/11/09 01:55:06;;;;;;;4.88;2.60;;;12.00;99.90;;;;;;6243435;23;20024;-83
2022/11/09 01:58:06;;;;;;;3.92;2.50;;;12.10;99.90;;;;;;6246575;23;20030;-84
2022/11/09 02:00:56;;;;;;;4.13;2.58;;;12.10;99.90;;;;;;6247724;22;20102;-84
2022/11/09 02:04:06;;;;;;;3.28;2.20;;;12.20;99.90;;;;;;6247694;23;20020;-84
2022/11/09 02:06:57;;;;;;;5.60;2.80;;;12.30;99.90;;;;;;6247686;23;20048;-83
2022/11/09 02:10:23;;;;;;;4.82;2.70;;;12.30;99.90;;;;;;6244658;23;20031;-83
2022/11/09 02:13:14;;;;;;;4.18;2.70;;;12.40;99.90;;;;;;6214603;22;20098;-84
2022/11/09 02:16:02;;;;;;;4.63;2.67;;;12.40;99.90;;;;;;6246672;23;20052;-84
2022/11/09 02:18:57;;;;;;;3.25;2.42;;;12.30;99.90;;;;;;6244852;23;20420;-84
2022/11/09 02:21:44;;;;;;;6.28;2.83;;;12.30;99.90;;;;;;6245019;23;20023;-83
2022/11/09 02:24:32;;;;;;;4.45;2.63;;;12.30;99.90;;;;;;6247636;23;20052;-82
2022/11/09 02:27:27;;;;;;;6.28;3.10;;;12.30;99.90;;;;;;6245025;23;20048;-85
2022/11/09 02:30:15;;;;;;;3.53;2.67;;;12.20;99.90;;;;;;6245589;23;20034;-83
2022/11/09 02:33:04;;;;;;;4.88;2.60;;;12.10;99.90;;;;;;6247780;23;20067;-84
2022/11/09 02:35:54;;;;;;;3.80;2.30;;;12.10;99.90;;;;;;6248171;22;20056;-84
2022/11/09 02:38:44;;;;;;;6.03;3.10;;;11.90;99.90;;;;;;6245518;23;20035;-84
2022/11/09 02:41:37;;;;;;;4.40;2.63;;;11.90;99.90;;;;;;6247800;23;20027;-84
2022/11/09 02:44:29;;;;;;;;;;;11.80;99.90;;;;;;6248605;23;20091;-83
2022/11/09 02:47:16;;;;;;;5.88;2.95;;;11.80;99.90;;;;;;6249904;23;19946;-82
2022/11/09 02:50:04;;;;;;;5.43;2.88;;;11.70;99.90;;;;;;6247519;23;20078;-83
2022/11/09 02:52:56;;;;;;;6.65;2.97;;;11.60;99.90;;;;;;6248708;22;20028;-83
2022/11/09 02:55:43;;;;;;;5.30;3.15;;;11.50;99.90;;;;;;6248352;22;20405;-83
2022/11/09 02:58:30;;;;;;;8.50;3.42;;;11.30;99.90;;;;;;6245586;23;20038;-82
2022/11/09 03:01:17;;;;;;;6.05;3.50;;;11.20;99.90;;;;;;6247375;22;20089;-81
2022/11/09 03:04:05;;;;;;;6.43;3.00;;;11.10;99.90;;;;;;6246271;23;20020;-83
2022/11/09 03:06:52;;;;;;;5.45;3.63;;;11.10;99.90;;;;;;6245821;23;20052;-83
2022/11/09 03:09:41;;;;;;;4.53;3.47;;;11.10;99.90;;;;;;6246473;23;20031;-84
2022/11/09 03:12:28;;;;;;;7.13;3.58;;;10.90;99.90;;;;;;6245175;23;20463;-83
2022/11/09 03:15:16;;;;;;;9.57;3.83;;;10.70;99.90;;;;;;6246222;23;20102;-83
2022/11/09 03:18:04;;;;;;;5.65;3.95;;;10.60;1.00;;;;;;6246164;23;20107;-83
2022/11/09 03:20:51;;;;;;;5.88;3.80;;;10.40;1.00;;;;;;6246106;23;20099;-84
2022/11/09 03:23:38;;;;;;;8.15;3.83;;;10.40;1.00;;;;;;6245993;23;20098;-83
2022/11/09 03:26:27;;;;;;;8.30;4.05;;;10.30;95.20;;;;;;6246011;23;20364;-83
2022/11/09 03:29:14;;;;;;;7.55;3.83;;;10.20;99.90;;;;;;6247108;22;20024;-83
2022/11/09 03:32:01;;;;;;;7.57;4.70;;;10.10;99.90;;;;;;6246666;23;20024;-83
2022/11/09 03:34:50;;;;;;;7.38;4.40;;;10.00;1.00;;;;;;6246591;23;20067;-83
2022/11/09 03:37:37;;;;;;;8.23;4.78;;;10.00;1.00;;;;;;6244194;23;20031;-82
2022/11/09 03:40:24;;;;;;;9.77;5.57;;;9.90;99.90;;;;;;6245545;23;20128;-83
2022/11/09 03:43:11;;;;;;;8.95;5.43;;;9.80;1.00;;;;;;6245641;23;20038;-82
2022/11/09 03:45:58;;;;;;;8.13;5.55;;;9.70;99.90;;;;;;6244975;23;20024;-83
2022/11/09 03:48:45;;;;;;;10.68;5.80;;;9.60;1.00;;;;;;6245910;23;20024;-83
2022/11/09 03:51:33;;;;;;;8.52;5.40;;;9.60;99.90;;;;;;6246169;23;20056;-82
2022/11/09 03:54:22;;;;;;;11.23;5.97;;;9.50;1.00;;;;;;6245628;23;20039;-82
2022/11/09 03:57:11;;;;;;;10.80;6.43;;;9.40;1.00;;;;;;6245836;23;20028;-82
2022/11/09 03:59:58;;;;;;;10.25;5.78;;;9.40;99.90;;;;;;6245319;23;20117;-82
2022/11/09 04:02:46;;;;;;;8.50;6.20;;;9.40;1.00;;;;;;6244695;23;20103;-82
2022/11/09 04:05:36;;;;;;;9.93;6.00;;;9.40;99.90;;;;;;6245779;23;20324;-82
2022/11/09 04:08:24;;;;;;;11.32;6.75;;;9.40;99.90;;;;;;6244568;23;20046;-82
2022/11/09 04:11:11;;;;;;;13.70;5.97;;;9.40;1.00;;;;;;6244508;23;20028;-83
2022/11/09 04:13:58;;;;;;;8.23;6.38;;;9.30;1.00;;;;;;6246389;23;20032;-82
2022/11/09 04:16:45;;;;;;;9.70;7.03;;;9.40;99.90;;;;;;6246361;23;20100;-82
2022/11/09 04:19:32;;;;;;;13.63;6.70;;;9.40;99.90;;;;;;6243906;23;20099;-82
2022/11/09 04:22:19;;;;;;;13.68;8.18;;;9.40;99.90;;;;;;6244266;23;20095;-82
2022/11/09 04:25:07;;;;;;;11.48;6.88;;;9.40;99.90;;;;;;6245847;23;20020;-82
2022/11/09 04:27:55;;;;;;;18.38;8.15;;;9.50;99.90;;;;;;6244287;23;20404;-81
2022/11/09 04:30:43;;;;;;;10.00;6.93;;;9.50;99.90;;;;;;6245366;23;20103;-81
2022/11/09 04:33:32;;;;;;;11.57;7.95;;;9.50;99.90;;;;;;6244725;23;20028;-81
2022/11/09 04:36:21;;;;;;;13.32;8.60;;;9.60;99.90;;;;;;6247020;22;20054;-80
2022/11/09 04:39:08;;;;;;;15.02;8.43;;;9.50;99.90;;;;;;6244196;23;20028;-80
2022/11/09 04:41:55;;;;;;;13.73;8.00;;;9.50;99.90;;;;;;6245597;23;20423;-80
2022/11/09 04:44:43;;;;;;;14.48;8.85;;;9.60;99.90;;;;;;6245922;23;20020;-81
2022/11/09 04:47:30;;;;;;;12.18;8.70;;;9.60;99.90;;;;;;6244920;23;20024;-80
2022/11/09 04:50:17;;;;;;;16.80;11.25;;;9.60;99.90;;;;;;6244788;23;20026;-80
2022/11/09 04:53:14;;;;;;;12.18;8.85;;;9.60;99.90;;;;;;6245921;23;20134;-82
2022/11/09 04:56:02;;;;;;;15.93;10.02;;;9.60;99.90;;;;;;6246368;22;20411;-80
2022/11/09 04:58:49;;;;;;;13.55;9.68;;;9.50;99.90;;;;;;6244062;23;20289;-80
2022/11/09 05:01:37;;;;;;;16.30;9.57;;;9.50;99.90;;;;;;6245322;23;20329;-80
2022/11/09 05:04:26;;;;;;;17.73;9.50;;;9.50;99.90;;;;;;6247695;22;20167;-80
2022/11/09 05:07:13;;;;;;;17.60;9.90;;;9.50;99.90;;;;;;6246025;23;20531;-81
2022/11/09 05:10:00;;;;;;;19.95;9.93;;;9.50;99.90;;;;;;6246111;23;20059;-80
2022/11/09 05:12:47;;;;;;;14.75;9.80;;;9.50;99.90;;;;;;6246007;22;20047;-81
2022/11/09 05:15:35;;;;;;;13.48;9.30;;;9.50;99.90;;;;;;6244723;23;20039;-81
2022/11/09 05:18:22;;;;;;;16.98;10.10;;;9.40;99.90;;;;;;6243983;23;20036;-81
2022/11/09 05:21:09;;;;;;;13.82;8.57;;;9.50;99.90;;;;;;6245327;23;20051;-80
2022/11/09 05:23:59;;;;;;;13.18;8.68;;;9.50;99.90;;;;;;6245411;23;20020;-81
2022/11/09 05:26:47;;;;;;;11.13;8.48;;;9.50;99.90;;;;;;6244942;23;20059;-81
2022/11/09 05:29:34;;;;;;;15.00;8.90;;;9.50;99.90;;;;;;6245319;23;20056;-81
2022/11/09 05:32:24;;;;;;;16.10;8.63;;;9.50;99.90;;;;;;6246188;23;20035;-81
2022/11/09 05:35:12;;;;;;;16.10;8.50;;;9.40;99.90;;;;;;6246535;23;20110;-81
2022/11/09 05:37:59;;;;;;;10.98;8.40;;;9.40;99.90;;;;;;6246705;23;20099;-82
2022/11/09 05:40:53;;;;;;;16.35;8.70;;;9.40;99.90;;;;;;6247262;23;20055;-81
2022/11/09 05:43:40;;;;;;;19.90;9.90;;;9.40;99.90;;;;;;6246079;23;20091;-81
2022/11/09 05:46:33;;;;;;;14.93;9.88;;;9.30;99.90;;;;;;6246923;23;20028;-82
2022/11/09 05:49:20;;;;;;;16.10;9.65;;;9.30;99.90;;;;;;6246896;23;20098;-82
2022/11/09 05:52:09;;;;;;;16.15;10.07;;;9.20;99.90;;;;;;6246510;23;20051;-83
2022/11/09 05:54:59;;;;;;;13.90;10.57;;;9.20;99.90;;;;;;6246682;23;20486;-82
2022/11/09 05:57:48;;;;;;;14.82;10.32;;;9.10;99.90;;;;;;6249196;22;20348;-82
2022/11/09 06:00:36;;;;;;;15.60;10.23;;;9.10;99.90;;;;;;6247643;23;20095;-83
2022/11/09 06:03:23;;;;;;;19.30;11.18;;;9.10;99.90;;;;;;6246063;23;20028;-83
2022/11/09 06:06:12;;;;;;;16.45;11.40;;;9.10;99.90;;;;;;6247923;23;20020;-83
2022/11/09 06:09:02;;;;;;;20.27;12.93;;;9.20;99.90;;;;;;6247463;23;20055;-82
2022/11/09 06:11:50;;;;;;;20.27;12.88;;;9.20;99.90;;;;;;6247737;22;20366;-81
2022/11/09 06:14:37;;;;;;;20.85;13.15;;;9.20;99.90;;;;;;6248184;23;20088;-82
2022/11/09 06:17:26;;;;;;;22.73;13.57;;;9.20;99.90;;;;;;6246288;23;20028;-82
2022/11/09 06:20:14;;;;;;;19.52;12.85;;;9.10;99.90;;;;;;6247169;22;20489;-83
2022/11/09 06:23:17;;;;;;;18.02;13.27;;;9.10;99.90;;;;;;6245950;23;20120;-81
2022/11/09 06:26:08;;;;;;;19.38;12.68;;;9.10;99.90;;;;;;6224930;23;20020;-83
2022/11/09 06:28:58;;;;;;;19.75;12.70;;;9.10;99.90;;;;;;6245763;23;20645;-83
2022/11/09 06:31:47;;;;;;;25.90;14.50;;;9.30;99.90;;;;;;6244550;23;20127;-81
2022/11/09 06:34:35;;;;;;;21.40;12.90;;;9.40;99.90;;;;;;6247434;23;20028;-83
2022/11/09 06:37:22;;;;;;;20.35;13.70;;;9.50;99.90;;;;;;6247275;23;20113;-85
2022/11/09 06:40:11;;;;;;;23.25;13.35;;;9.50;99.90;;;;;;6244532;23;20517;-83
2022/11/09 06:42:59;;;;;;;23.42;12.63;;;9.50;99.90;;;;;;6247580;22;20428;-83
2022/11/09 06:45:47;;;;;;;18.55;11.93;;;9.50;99.90;;;;;;6246845;22;20016;-82
2022/11/09 06:48:34;;;;;;;15.43;11.07;;;9.50;99.90;;;;;;6247887;22;20100;-82
2022/11/09 06:51:25;;;;;;;18.38;9.80;;;9.50;99.90;;;;;;6247147;23;20052;-82
2022/11/09 06:54:15;;;;;;;22.63;12.30;;;9.60;99.90;;;;;;6247682;22;20454;-82
2022/11/09 06:57:02;;;;;;;16.08;10.23;;;9.60;99.90;;;;;;6245412;23;20028;-82
2022/11/09 06:59:52;;;;;;;15.57;10.30;;;9.60;99.90;;;;;;6246986;23;20095;-82
2022/11/09 07:02:39;;;;;;;23.13;11.60;;;9.60;99.90;;;;;;6248624;23;20028;-82
2022/11/09 07:05:28;;;;;;;15.60;9.93;;;9.60;99.90;;;;;;6247232;23;20020;-82
2022/11/09 07:08:18;;;;;;;15.35;10.68;;;9.60;99.90;;;;;;6245698;23;20106;-82
2022/11/09 07:11:15;;;;;;;13.55;9.55;;;9.60;99.90;;;;;;6247264;23;20095;-82
2022/11/09 07:14:03;;;;;;;14.10;10.13;;;9.70;99.90;;;;;;6244715;23;20028;-83
2022/11/09 07:16:50;;;;;;;16.52;10.07;;;9.70;99.90;;;;;;6247104;23;20371;-83
2022/11/09 07:19:37;;;;;;;13.27;9.60;;;9.70;99.90;;;;;;6246730;22;20035;-83
2022/11/09 07:22:27;;;;;;;14.10;10.00;;;9.80;99.90;;;;;;6246219;23;20367;-83
2022/11/09 07:25:16;;;;;;;14.77;9.30;;;9.80;99.90;;;;;;6247362;23;20024;-83
2022/11/09 07:28:10;;;;;;;16.92;10.20;;;9.80;99.90;;;;;;6246963;23;20048;-82
2022/11/09 07:30:57;;;;;;;14.75;10.13;;;9.80;99.90;;;;;;6245010;23;20097;-82
2022/11/09 07:33:45;;;;;;;14.30;9.23;;;9.80;99.90;;;;;;6247463;22;20027;-83
2022/11/09 07:36:34;;;;;;;14.68;9.15;;;9.90;99.90;;;;;;6245934;23;20024;-82
2022/11/09 07:39:22;;;;;;;12.68;8.75;;;9.90;99.90;;;;;;6245941;23;20052;-83
2022/11/09 07:42:09;;;;;;;15.32;8.95;;;10.00;99.90;;;;;;6246044;23;20028;-83
2022/11/09 07:44:56;;;;;;;15.35;8.98;;;10.00;99.90;;;;;;6245602;23;20107;-83
2022/11/09 07:47:43;;;;;;;14.45;8.00;;;10.10;99.90;;;;;;6246619;23;20020;-83
2022/11/09 07:50:32;;;;;;;13.40;7.28;;;10.10;99.90;;;;;;6246032;23;20032;-83
2022/11/09 07:53:20;;;;;;;9.70;6.22;;;10.20;99.90;;;;;;6247563;23;20032;-82
2022/11/09 07:56:07;;;;;;;8.27;6.43;;;10.20;99.90;;;;;;6244770;23;20047;-81
2022/11/09 07:58:54;;;;;;;8.80;5.60;;;10.30;99.90;;;;;;6245370;23;20312;-81
2022/11/09 08:01:44;;;;;;;7.85;5.20;;;10.30;99.90;;;;;;6245741;23;20055;-81
2022/11/09 08:04:35;;;;;;;8.68;5.68;;;10.30;99.90;;;;;;6246755;22;20020;-81
2022/11/09 08:07:22;;;;;;;9.75;6.18;;;10.30;99.90;;;;;;6247218;22;20051;-81
2022/11/09 08:10:12;;;;;;;8.82;5.63;;;10.30;99.90;;;;;;6244186;23;20024;-82
2022/11/09 08:13:07;;;;;;;10.68;6.70;;;10.40;99.90;;;;;;6246464;23;20032;-81
2022/11/09 08:15:54;;;;;;;10.27;5.80;;;10.40;99.90;;;;;;6246098;23;20024;-82
2022/11/09 08:18:41;;;;;;;8.13;5.93;;;10.40;99.90;;;;;;6245351;23;20035;-82
2022/11/09 08:21:31;;;;;;;10.13;5.93;;;10.40;99.90;;;;;;6245495;23;20419;-81
2022/11/09 08:24:18;;;;;;;7.03;4.82;;;10.50;99.90;;;;;;6246483;22;20035;-82
2022/11/09 08:27:05;;;;;;;9.50;4.75;;;10.50;99.90;;;;;;6244545;23;20082;-81
2022/11/09 08:29:53;;;;;;;6.13;4.40;;;10.50;99.90;;;;;;6246141;23;20035;-82
2022/11/09 08:32:41;;;;;;;4.97;3.80;;;10.60;99.90;;;;;;6245094;23;20024;-81
2022/11/09 08:35:29;;;;;;;7.95;4.75;;;10.60;99.90;;;;;;6247366;22;20090;-82
2022/11/09 08:38:17;;;;;;;4.90;3.35;;;10.60;99.90;;;;;;6246052;23;20028;-83
2022/11/09 08:41:08;;;;;;;5.15;3.22;;;10.60;99.90;;;;;;6246084;23;20307;-81
2022/11/09 08:43:59;;;;;;;5.07;2.97;;;10.60;99.90;;;;;;6244791;23;20031;-82
2022/11/09 08:46:47;;;;;;;4.55;2.90;;;10.70;99.90;;;;;;6245791;23;20424;-82
2022/11/09 08:49:34;;;;;;;4.28;2.63;;;10.70;99.90;;;;;;6245627;22;20461;-82
2022/11/09 08:52:21;;;;;;;6.40;3.08;;;10.70;99.90;;;;;;6243542;23;20024;-82
2022/11/09 08:55:09;;;;;;;3.55;2.58;;;10.70;99.90;;;;;;6245584;23;20469;-82
2022/11/09 08:58:03;;;;;;;7.00;2.75;;;10.80;99.90;;;;;;6245341;23;20039;-82
2022/11/09 09:00:51;;;;;;;5.57;2.20;;;10.80;99.90;;;;;;6245196;23;20024;-81
2022/11/09 09:03:43;;;;;;;4.85;1.80;;;10.90;99.90;;;;;;6244129;23;20038;-83
2022/11/09 09:06:30;;;;;;;2.45;2.20;;;10.90;99.90;;;;;;6245166;23;20024;-82
2022/11/09 09:09:18;;;;;;;4.20;2.70;;;10.90;99.90;;;;;;6244888;23;20098;-83
2022/11/09 09:12:09;;;;;;;2.50;1.90;;;11.00;99.90;;;;;;6246002;23;20024;-81
2022/11/09 09:14:56;;;;;;;3.38;2.38;;;11.10;99.90;;;;;;6244318;23;20039;-81
2022/11/09 09:17:44;;;;;;;4.65;2.72;;;11.10;99.90;;;;;;6246090;23;20039;-82
2022/11/09 09:20:33;;;;;;;2.42;1.60;;;11.20;99.90;;;;;;6246169;23;20039;-83
2022/11/09 09:23:23;;;;;;;4.10;2.20;;;11.30;99.90;;;;;;6245466;23;20404;-83
2022/11/09 09:26:10;;;;;;;7.72;2.00;;;11.40;99.90;;;;;;6244628;23;20032;-83
2022/11/09 09:28:58;;;;;;;2.17;1.98;;;11.40;99.90;;;;;;6245161;23;20301;-83
2022/11/09 09:31:45;;;;;;;4.55;2.13;;;11.60;99.90;;;;;;6246449;23;20048;-83
2022/11/09 09:34:34;;;;;;;2.88;2.55;;;11.80;99.90;;;;;;6244606;23;20543;-83
2022/11/09 09:37:21;;;;;;;5.43;2.58;;;12.10;99.90;;;;;;6245855;23;20028;-83
2022/11/09 09:40:24;;;;;;;2.72;1.88;;;12.30;99.90;;;;;;6247110;22;20038;-82
2022/11/09 09:43:16;;;;;;;;;;;12.50;99.90;;;;;;6245569;23;20035;-83
2022/11/09 09:46:10;;;;;;;2.85;1.90;;;12.90;99.90;;;;;;6245772;22;19934;-82
2022/11/09 09:49:12;;;;;;;2.25;1.90;;;13.40;1.00;;;;;;6244515;23;20310;-84
2022/11/09 09:52:20;;;;;;;5.55;2.45;;;13.70;99.90;;;;;;6244513;23;20289;-83
2022/11/09 09:55:13;;;;;;;3.20;2.72;;;13.40;99.90;;;;;;6246589;22;20024;-83
2022/11/09 09:58:32;;;;;;;;;;;13.30;1.00;;;;;;6245845;23;20078;-83
2022/11/09 10:01:26;;;;;;;7.03;3.30;;;13.40;99.90;;;;;;6208657;22;20010;-83
2022/11/09 10:04:22;;;;;;;3.83;2.40;;;13.30;99.90;;;;;;6245512;23;20028;-82
2022/11/09 10:07:31;;;;;;;9.05;2.90;;;13.20;1.00;;;;;;6249275;22;20031;-83
2022/11/09 10:10:32;;;;;;;3.88;2.30;;;13.00;1.00;;;;;;6246284;23;20095;-84
2022/11/09 10:13:45;;;;;;;3.58;2.65;;;12.90;1.00;;;;;;6246551;22;20021;-83
2022/11/09 10:16:41;;;;;;;5.55;2.47;;;13.10;1.00;;;;;;6243124;23;20032;-83
2022/11/09 10:19:52;;;;;;;6.78;2.25;;;13.10;1.00;;;;;;6247473;23;20103;-82
2022/11/09 10:22:51;;;;;;;2.47;2.22;;;13.30;99.90;;;;;;6250023;23;20024;-82
2022/11/09 10:25:45;;;;;;;5.50;2.47;;;13.50;99.90;;;;;;6247773;23;20028;-83
2022/11/09 10:29:00;;;;;;;3.78;2.28;;;13.70;22.60;;;;;;6247986;22;20024;-83
2022/11/09 10:32:20;;;;;;;2.67;1.70;;;13.90;1.00;;;;;;6246636;23;20435;-84
2022/11/09 10:35:14;;;;;;;6.70;2.58;;;14.10;99.90;;;;;;6245264;23;20024;-82
2022/11/09 10:38:03;;;;;;;4.00;2.35;;;13.80;99.90;;;;;;6247367;23;20031;-83
2022/11/09 10:40:56;;;;;;;5.30;2.40;;;13.70;99.90;;;;;;6247568;23;20505;-84
2022/11/09 10:43:49;;;;;;;4.20;2.28;;;13.70;99.90;;;;;;6246326;23;20028;-83
2022/11/09 10:47:02;;;;;;;6.03;2.70;;;13.50;99.90;;;;;;6246641;23;20416;-84
2022/11/09 10:50:32;;;;;;;8.02;2.90;;;13.50;99.90;;;;;;6248281;23;20016;-84
2022/11/09 10:53:25;;;;;;;6.15;2.40;;;13.80;99.90;;;;;;6247904;23;20339;-84
2022/11/09 10:56:20;;;;;;;5.72;2.60;;;13.80;99.90;;;;;;6245325;23;20028;-86
2022/11/09 10:59:31;;;;;;;5.70;2.33;;;13.80;99.90;;;;;;6246493;23;20043;-84
2022/11/09 11:02:24;;;;;;;5.13;2.45;;;13.70;99.90;;;;;;6247322;23;20407;-83
2022/11/09 11:05:17;;;;;;;3.63;2.47;;;13.60;99.90;;;;;;6246861;22;20024;-85
2022/11/09 11:08:20;;;;;;;6.43;2.55;;;13.60;99.90;;;;;;6247342;23;20074;-83
2022/11/09 11:11:29;;;;;;;6.35;2.40;;;13.40;99.90;;;;;;6247265;23;20487;-83
2022/11/09 11:14:28;;;;;;;4.93;2.13;;;13.30;99.90;;;;;;6245727;23;20351;-83
2022/11/09 11:17:37;;;;;;;4.50;2.38;;;13.30;99.90;;;;;;6244549;23;20100;-82
2022/11/09 11:20:35;;;;;;;2.63;2.38;;;13.30;99.90;;;;;;6245812;23;20102;-84
2022/11/09 11:23:24;;;;;;;3.33;2.42;;;13.30;99.90;;;;;;6245384;23;20024;-83
2022/11/09 11:26:18;;;;;;;3.08;2.20;;;13.30;99.90;;;;;;6245962;23;20106;-82
2022/11/09 11:29:18;;;;;;;2.85;2.40;;;13.30;99.90;;;;;;6247077;23;20076;-83
2022/11/09 11:32:15;;;;;;;3.22;2.17;;;13.20;99.90;;;;;;6246805;23;20020;-84
2022/11/09 11:35:17;;;;;;;3.05;2.45;;;13.20;99.90;;;;;;6243992;23;20051;-84
2022/11/09 11:38:19;;;;;;;3.90;2.40;;;13.30;99.90;;;;;;6245962;23;20032;-84
2022/11/09 11:41:27;;;;;;;3.40;2.40;;;13.30;99.90;;;;;;6247069;23;20419;-83
2022/11/09 11:44:56;;;;;;;4.72;2.28;;;13.30;99.90;;;;;;6246881;23;20086;-84
2022/11/09 11:48:31;;;;;;;4.20;2.53;;;13.40;99.90;;;;;;6258308;23;20031;-83
2022/11/09 11:51:25;;;;;;;3.95;2.55;;;13.60;99.90;;;;;;6246777;23;20105;-85
2022/11/09 11:54:21;;;;;;;5.32;2.03;;;13.60;99.90;;;;;;6246251;23;20447;-84
2022/11/09 11:57:48;;;;;;;5.03;2.47;;;13.60;99.90;;;;;;6246042;23;20025;-84
2022/11/09 12:01:16;;;;;;;2.55;2.30;;;13.70;99.90;;;;;;6186012;22;20020;-83
2022/11/09 12:04:28;;;;;;;4.28;2.25;;;13.90;99.90;;;;;;6226642;23;20030;-84
2022/11/09 12:07:35;;;;;;;4.88;2.00;;;14.10;22.30;;;;;;6247408;22;20151;-84
2022/11/09 12:10:22;;;;;;;3.70;2.03;;;14.30;1.00;;;;;;6246620;23;20095;-86
2022/11/09 12:13:21;;;;;;;1.80;1.70;;;14.50;1.00;;;;;;6247152;23;20038;-84
2022/11/09 12:16:16;;;;;;;4.20;2.10;;;14.80;1.00;;;;;;6246956;23;20364;-82
2022/11/09 12:19:28;;;;;;;4.63;2.00;;;14.90;99.90;;;;;;6246678;23;20095;-84
2022/11/09 12:22:28;;;;;;;2.25;1.58;;;14.90;99.90;;;;;;6246827;22;20034;-85
2022/11/09 12:25:20;;;;;;;3.67;1.83;;;14.60;99.90;;;;;;6246576;22;20419;-85
2022/11/09 12:28:33;;;;;;;2.83;1.90;;;14.40;99.90;;;;;;6245647;23;20036;-84
2022/11/09 12:31:20;;;;;;;;;;;14.20;99.90;;;;;;6246105;23;20024;-83
2022/11/09 12:34:45;;;;;;;4.78;2.03;;;14.30;99.90;;;;;;6245826;23;19946;-86
2022/11/09 12:37:38;;;;;;;2.30;1.92;;;14.50;1.00;;;;;;6244267;23;20410;-84
2022/11/09 12:40:29;;;;;;;2.42;1.90;;;14.70;99.90;;;;;;6246108;23;20024;-83
2022/11/09 12:43:32;;;;;;;2.50;1.80;;;14.70;99.90;;;;;;6245802;23;20028;-85
2022/11/09 12:46:37;;;;;;;4.45;2.25;;;14.60;99.90;;;;;;6243674;23;20043;-85
2022/11/09 12:49:40;;;;;;;2.20;1.48;;;14.60;99.90;;;;;;6245419;23;20028;-84
2022/11/09 12:52:29;;;;;;;2.50;1.77;;;14.50;99.90;;;;;;6247970;23;20078;-84
2022/11/09 12:55:49;;;;;;;1.85;1.73;;;14.20;99.90;;;;;;6243869;23;20071;-84
2022/11/09 12:58:38;;;;;;;6.18;1.92;;;14.20;99.90;;;;;;6245996;23;20105;-83
2022/11/09 13:01:25;;;;;;;1.92;1.70;;;14.00;99.90;;;;;;6244034;23;20039;-85
2022/11/09 13:04:17;;;;;;;3.10;1.58;;;13.90;99.90;;;;;;6245971;23;20793;-84
2022/11/09 13:07:21;;;;;;;3.15;2.20;;;13.80;1.00;;;;;;6245619;23;20297;-84
2022/11/09 13:10:24;;;;;;;3.17;1.60;;;13.70;1.00;;;;;;6245971;23;20110;-84
2022/11/09 13:13:14;;;;;;;3.78;1.60;;;13.60;1.00;;;;;;6244807;23;20825;-85
2022/11/09 13:16:31;;;;;;;4.88;2.00;;;13.60;1.00;;;;;;6247243;22;20028;-86
2022/11/09 13:19:33;;;;;;;2.53;1.60;;;13.60;1.00;;;;;;6246835;22;20079;-85
2022/11/09 13:22:21;;;;;;;3.33;1.90;;;13.60;70.60;;;;;;6243664;23;20036;-85
2022/11/09 13:25:49;;;;;;;2.97;2.20;;;13.60;99.90;;;;;;6245555;23;20024;-84
2022/11/09 13:28:41;;;;;;;3.35;1.98;;;13.60;99.90;;;;;;6247948;22;20082;-85
2022/11/09 13:32:04;;;;;;;2.70;2.03;;;13.60;99.90;;;;;;6226137;23;20024;-84
2022/11/09 13:34:54;;;;;;;2.53;2.20;;;13.50;99.90;;;;;;6240966;23;20031;-84
2022/11/09 13:37:41;;;;;;;4.47;1.95;;;13.50;99.90;;;;;;6247486;22;20311;-86
2022/11/09 13:40:31;;;;;;;2.90;1.95;;;13.50;99.90;;;;;;6246507;23;20324;-86
2022/11/09 13:43:54;;;;;;;2.35;1.90;;;13.40;99.90;;;;;;6245306;23;20021;-84
2022/11/09 13:46:47;;;;;;;3.00;2.50;;;13.40;99.90;;;;;;6245528;23;20031;-86
2022/11/09 13:49:43;;;;;;;5.13;2.28;;;13.40;1.00;;;;;;6248033;23;20311;-85
2022/11/09 13:53:01;;;;;;;2.30;2.05;;;13.40;1.00;;;;;;6250615;23;20024;-90
2022/11/09 13:55:50;;;;;;;4.03;2.50;;;13.30;6.40;;;;;;6245202;23;20070;-90
2022/11/09 13:58:45;;;;;;;5.40;2.55;;;13.30;64.90;;;;;;6251404;23;20339;-90
2022/11/09 14:02:00;;;;;;;;;;;;;;;;;;;;;
2022/11/09 14:05:37;;;;;;;;;;;;;;;;;;;;;
2022/11/09 14:08:45;;;;;;;7.22;2.70;;;13.30;99.90;;;;;;6125910;23;20030;-90
2022/11/09 14:12:24;;;;;;;3.75;2.67;;;13.20;1.00;;;;;;6126362;23;20085;-91
2022/11/09 14:15:18;;;;;;;3.67;2.70;;;13.20;1.00;;;;;;6127849;23;20034;-90
2022/11/09 14:18:49;;;;;;;4.13;2.58;;;13.20;62.20;;;;;;6114954;23;20025;-92
2022/11/09 14:22:01;;;;;;;5.95;2.72;;;13.20;96.30;;;;;;6134069;23;20041;-89
2022/11/09 14:25:12;;;;;;;4.28;3.05;;;13.20;99.90;;;;;;6145430;23;20010;-85
2022/11/09 14:32:29;;;;;;;6.70;4.05;;;13.20;99.90;;;;;;6258391;22;20028;-89
2022/11/09 14:35:46;;;;;;;;;;;;;;;;;;;;;
2022/11/09 14:39:32;;;;;;;;;;;;;;;;;;;;;
2022/11/09 14:43:34;;;;;;;;;;;;;;;;;;;;;
2022/11/09 14:46:30;;;;;;;7.45;4.15;;;12.90;3.20;;;;;;6139386;23;19927;-92
2022/11/09 14:49:28;;;;;;;;;;;;;;;;;;;;;
2022/11/09 14:52:28;;;;;;;7.60;5.05;;;12.80;1.00;;;;;;6157011;23;20025;-91
2022/11/09 14:55:24;;;;;;;7.35;3.80;;;12.70;1.00;;;;;;6138374;23;20029;-92
2022/11/09 14:58:22;;;;;;;9.63;5.10;;;12.60;99.90;;;;;;6135835;23;20060;-92
2022/11/09 15:01:49;;;;;;;10.43;5.03;;;12.60;1.00;;;;;;6239843;23;20433;-92
2022/11/09 15:05:01;;;;;;;9.82;5.93;;;12.60;99.90;;;;;;6250219;23;20052;-91
2022/11/09 15:07:54;;;;;;;12.57;6.50;;;12.50;99.90;;;;;;6247929;23;20039;-91
2022/11/09 15:11:00;;;;;;;11.93;6.20;;;12.50;99.90;;;;;;6248703;23;20020;-91
2022/11/09 15:13:53;;;;;;;9.40;5.22;;;12.40;99.90;;;;;;6248790;23;20020;-92
2022/11/09 15:16:46;;;;;;;8.25;4.90;;;12.40;99.90;;;;;;6246401;23;20084;-92
2022/11/09 15:19:47;;;;;;;12.00;4.82;;;12.30;99.90;;;;;;6248337;22;20046;-91
2022/11/09 15:22:50;;;;;;;12.15;5.28;;;12.30;99.90;;;;;;6248199;23;20019;-90